West Chenango, New York
Current Conditions -  °F | °C
As of 12:53 AM on Friday 31 Oct 2014 (Local Time) from KBGM Reporting Station
Few Clouds Few Clouds  
Wind Chill:   Ceiling: Unl
Heat Index:   Visibility: 10mi
Dew Point: -1°   Wind: 3mph
Humidity: 73%   Direction: 10°N
Pressure: 30"   Gusts: NA
Location:  42.1759°N, 75.9402°W
Report Text: KBGM 310453Z AUTO 01003KT 10SM FEW034 03/M01 A3000 RMK AO2 SLP170 T00331011 400780022
Loading
Personal Weather Stations






























Interactive Weather Map
Tropical Storm Tracking
New forecast layout! Learn more

10-Day Weather Forecast

Advertisements
Track Severe Weather on mobile